Time;durP1;ratioP1;P1;durP2;ratioP2;P2;SDS_P1;SDS_P2;PMS_P1;PMS_P2;Temp;Humidity;BMP_temperature;BMP_pressure;BME280_temperature;BME280_humidity;BME280_pressure;Samples;Min_cycle;Max_cycle;Signal;HPM_P1;HPM_P2
2022/01/17 00:01:03;;;;;;;;;;;6.30;99.90;;;;;;5078439;28;20002;-52
2022/01/17 00:03:28;;;;;;;;;;;6.30;99.90;;;;;;5078700;28;20272;-57
2022/01/17 00:05:54;;;;;;;;;;;6.20;99.90;;;;;;5077522;28;19908;-54
2022/01/17 00:08:19;;;;;;;;;;;6.20;99.90;;;;;;5078602;28;20003;-53
2022/01/17 00:10:46;;;;;;;;;;;6.20;99.90;;;;;;5078430;28;19912;-54
2022/01/17 00:13:21;;;;;;;;;;;6.20;99.90;;;;;;5095893;28;19912;-52
2022/01/17 00:15:50;;;;;;;;;;;6.20;99.90;;;;;;5095639;28;19904;-53
2022/01/17 00:20:46;;;;;;;;;;;6.30;99.90;;;;;;5093749;28;20199;-54
2022/01/17 00:23:12;;;;;;;;;;;6.30;99.90;;;;;;5075845;28;19926;-52
2022/01/17 00:25:38;;;;;;;;;;;6.30;99.90;;;;;;5076345;28;19904;-55
2022/01/17 00:28:04;;;;;;;;;;;6.30;99.90;;;;;;5075679;28;20026;-51
2022/01/17 00:30:31;;;;;;;;;;;6.30;99.90;;;;;;5073998;28;21287;-55
2022/01/17 00:32:57;;;;;;;;;;;6.30;99.90;;;;;;5092390;28;19912;-51
2022/01/17 00:35:24;;;;;;;;;;;6.30;99.90;;;;;;5075836;28;19994;-55
2022/01/17 00:37:50;;;;;;;;;;;6.30;99.90;;;;;;5094362;28;19951;-56
2022/01/17 00:40:17;;;;;;;;;;;6.30;99.90;;;;;;5076646;28;19951;-53
2022/01/17 00:42:43;;;;;;;;;;;6.30;99.90;;;;;;5076621;28;19912;-52
2022/01/17 00:45:12;;;;;;;;;;;6.30;99.90;;;;;;5078218;28;19919;-49
2022/01/17 00:47:37;;;;;;;;;;;6.40;99.90;;;;;;5095676;28;19908;-52
2022/01/17 00:50:03;;;;;;;;;;;6.40;99.90;;;;;;5077123;28;20295;-56
2022/01/17 00:52:28;;;;;;;;;;;6.40;99.90;;;;;;5111468;28;20267;-52
2022/01/17 00:54:54;;;;;;;;;;;6.40;99.90;;;;;;5076903;28;19973;-52
2022/01/17 00:57:19;;;;;;;;;;;6.40;99.90;;;;;;5078465;28;19995;-50
2022/01/17 00:59:44;;;;;;;;;;;6.40;99.90;;;;;;5111732;28;20016;-53
2022/01/17 01:02:10;;;;;;;;;;;6.40;99.90;;;;;;5111591;28;19920;-49
2022/01/17 01:04:36;;;;;;;;;;;6.40;99.90;;;;;;5077631;28;20002;-51
2022/01/17 01:07:01;;;;;;;;;;;6.40;99.90;;;;;;5092675;28;20216;-53
2022/01/17 01:09:31;;;;;;;;;;;6.50;99.90;;;;;;5075898;28;19916;-49
2022/01/17 01:11:57;;;;;;;;;;;6.50;99.90;;;;;;5109025;28;19955;-51
2022/01/17 01:14:22;;;;;;;;;;;6.50;99.90;;;;;;5079337;28;19970;-53
2022/01/17 01:16:47;;;;;;;;;;;6.50;99.90;;;;;;5081076;28;19999;-52
2022/01/17 01:19:38;;;;;;;;;;;6.50;99.90;;;;;;5097785;28;19999;-54
2022/01/17 01:27:56;;;;;;;;;;;6.60;99.90;;;;;;5017801;28;19909;-51
2022/01/17 01:30:24;;;;;;;;;;;6.50;99.90;;;;;;5018755;28;19929;-54
2022/01/17 01:32:53;;;;;;;;;;;6.60;99.90;;;;;;5051502;28;20213;-54
2022/01/17 01:35:22;;;;;;;;;;;6.60;99.90;;;;;;5098785;28;20289;-49
2022/01/17 01:37:48;;;;;;;;;;;6.60;99.90;;;;;;5099055;28;19920;-54
2022/01/17 01:40:16;;;;;;;;;;;6.60;99.90;;;;;;5081874;28;19939;-51
2022/01/17 01:42:41;;;;;;;;;;;6.60;99.90;;;;;;5080794;28;19908;-52
2022/01/17 01:45:08;;;;;;;;;;;6.60;99.90;;;;;;5081075;28;19995;-56
2022/01/17 01:47:34;;;;;;;;;;;6.60;99.90;;;;;;5080589;28;19973;-55
2022/01/17 01:50:00;;;;;;;;;;;6.60;99.90;;;;;;5079527;28;20113;-53
2022/01/17 01:52:26;;;;;;;;;;;6.60;99.90;;;;;;5096583;28;20250;-54
2022/01/17 01:54:51;;;;;;;;;;;6.60;99.90;;;;;;5110133;28;20006;-53
2022/01/17 01:57:17;;;;;;;;;;;6.60;99.90;;;;;;5077573;28;20007;-55
2022/01/17 01:59:42;;;;;;;;;;;6.60;99.90;;;;;;5078235;28;19920;-56
2022/01/17 02:02:08;;;;;;;;;;;6.60;99.90;;;;;;5079682;28;19970;-55
2022/01/17 02:04:34;;;;;;;;;;;6.60;99.90;;;;;;5079766;28;20212;-54
2022/01/17 02:06:59;;;;;;;;;;;6.60;99.90;;;;;;5081773;28;19924;-53
2022/01/17 02:09:24;;;;;;;;;;;6.60;99.90;;;;;;5081358;28;19916;-50
2022/01/17 02:11:50;;;;;;;;;;;6.60;99.90;;;;;;5114661;28;19908;-51
2022/01/17 02:14:15;;;;;;;;;;;6.70;99.90;;;;;;5080493;28;19912;-50
2022/01/17 02:16:43;;;;;;;;;;;6.70;99.90;;;;;;5080798;28;19908;-51
2022/01/17 02:19:09;;;;;;;;;;;6.70;99.90;;;;;;5098177;28;20107;-49
2022/01/17 02:21:46;;;;;;;;;;;6.70;99.90;;;;;;5078242;28;19915;-54
2022/01/17 02:24:14;;;;;;;;;;;6.70;99.90;;;;;;5078224;28;20265;-52
2022/01/17 02:26:40;;;;;;;;;;;6.70;99.90;;;;;;5095987;28;19989;-53
2022/01/17 02:29:06;;;;;;;;;;;6.70;99.90;;;;;;5078594;28;19939;-53
2022/01/17 02:31:32;;;;;;;;;;;6.70;99.90;;;;;;5096063;28;19916;-54
2022/01/17 02:33:57;;;;;;;;;;;6.70;99.90;;;;;;5077775;28;19973;-53
2022/01/17 02:36:23;;;;;;;;;;;6.70;99.90;;;;;;5097863;28;20169;-55
2022/01/17 02:38:49;;;;;;;;;;;6.70;99.90;;;;;;5097607;28;19944;-52
2022/01/17 02:41:15;;;;;;;;;;;6.70;99.90;;;;;;5097504;28;20261;-49
2022/01/17 02:43:40;;;;;;;;;;;6.70;99.90;;;;;;5080573;28;19912;-50
2022/01/17 02:48:34;;;;;;;;;;;6.70;99.90;;;;;;5098570;28;19913;-56
2022/01/17 02:51:00;;;;;;;;;;;6.70;99.90;;;;;;5080371;28;19912;-52
2022/01/17 02:53:26;;;;;;;;;;;6.70;99.90;;;;;;5098305;28;20324;-56
2022/01/17 02:55:53;;;;;;;;;;;6.70;99.90;;;;;;5082152;28;19914;-56
2022/01/17 02:58:20;;;;;;;;;;;6.70;99.90;;;;;;5098700;28;19919;-55
2022/01/17 03:00:45;;;;;;;;;;;6.80;99.90;;;;;;5080403;28;19916;-55
2022/01/17 03:03:15;;;;;;;;;;;6.80;99.90;;;;;;5080764;28;19915;-50
2022/01/17 03:05:40;;;;;;;;;;;6.80;99.90;;;;;;5078041;28;20304;-51
2022/01/17 03:08:06;;;;;;;;;;;6.80;99.90;;;;;;5079341;28;19908;-51
2022/01/17 03:13:04;;;;;;;;;;;6.80;99.90;;;;;;5098040;28;20284;-51
2022/01/17 03:15:30;;;;;;;;;;;6.80;99.90;;;;;;5113638;28;19974;-53
2022/01/17 03:17:55;;;;;;;;;;;6.80;99.90;;;;;;5079965;28;19908;-53
2022/01/17 03:20:21;;;;;;;;;;;6.90;99.90;;;;;;5097802;28;19935;-53
2022/01/17 03:22:47;;;;;;;;;;;6.90;99.90;;;;;;5080943;28;19995;-51
2022/01/17 03:25:12;;;;;;;;;;;6.90;99.90;;;;;;5080379;28;20161;-52
2022/01/17 03:27:37;;;;;;;;;;;6.90;99.90;;;;;;5115472;28;19914;-53
2022/01/17 03:30:04;;;;;;;;;;;6.90;99.90;;;;;;5098281;28;19928;-52
2022/01/17 03:32:29;;;;;;;;;;;6.80;99.90;;;;;;5097329;28;19908;-50
2022/01/17 03:34:55;;;;;;;;;;;6.80;99.90;;;;;;5080392;28;19919;-55
2022/01/17 03:37:21;;;;;;;;;;;6.80;99.90;;;;;;5078662;28;19919;-51
2022/01/17 03:39:47;;;;;;;;;;;6.90;99.90;;;;;;5112551;28;19912;-52
2022/01/17 03:42:12;;;;;;;;;;;6.90;99.90;;;;;;5078027;28;19919;-50
2022/01/17 03:44:38;;;;;;;;;;;6.90;99.90;;;;;;5078307;28;20006;-52
2022/01/17 03:47:03;;;;;;;;;;;6.90;99.90;;;;;;5095772;28;19963;-55
2022/01/17 03:49:35;;;;;;;;;;;6.90;99.90;;;;;;5076952;28;19973;-56
2022/01/17 03:52:01;;;;;;;;;;;6.90;99.90;;;;;;5077203;28;20053;-54
2022/01/17 03:54:26;;;;;;;;;;;6.90;99.90;;;;;;5095676;28;20006;-52
2022/01/17 03:56:52;;;;;;;;;;;6.90;99.90;;;;;;5078705;28;19947;-53
2022/01/17 03:59:17;;;;;;;;;;;6.90;99.90;;;;;;5095564;28;19960;-52
2022/01/17 04:01:42;;;;;;;;;;;6.90;99.90;;;;;;5111988;28;19998;-48
2022/01/17 04:04:08;;;;;;;;;;;6.90;99.90;;;;;;5078601;28;19916;-56
2022/01/17 04:06:34;;;;;;;;;;;6.90;99.90;;;;;;5078036;28;19908;-49
2022/01/17 04:09:00;;;;;;;;;;;6.90;99.90;;;;;;5077828;28;19909;-54
2022/01/17 04:11:25;;;;;;;;;;;6.90;99.90;;;;;;5095351;28;19973;-51
2022/01/17 04:13:51;;;;;;;;;;;6.90;99.90;;;;;;5078207;28;19912;-50
2022/01/17 04:16:16;;;;;;;;;;;6.90;99.90;;;;;;5076171;28;20005;-51
2022/01/17 04:18:43;;;;;;;;;;;6.90;99.90;;;;;;5108656;28;20184;-51
2022/01/17 04:21:08;;;;;;;;;;;6.90;99.90;;;;;;5074460;28;19915;-52
2022/01/17 04:23:34;;;;;;;;;;;6.90;99.90;;;;;;5077189;28;19908;-53
2022/01/17 04:25:59;;;;;;;;;;;7.00;99.90;;;;;;5095318;28;19997;-51
2022/01/17 04:28:25;;;;;;;;;;;7.00;99.90;;;;;;5078270;28;20187;-55
2022/01/17 04:30:50;;;;;;;;;;;7.00;99.90;;;;;;5077128;28;20020;-49
2022/01/17 04:33:16;;;;;;;;;;;7.00;99.90;;;;;;5111079;28;20328;-53
2022/01/17 04:35:42;;;;;;;;;;;7.00;99.90;;;;;;5077509;28;19908;-52
2022/01/17 04:38:10;;;;;;;;;;;7.00;99.90;;;;;;5078300;28;19916;-54
2022/01/17 04:40:38;;;;;;;;;;;7.00;99.90;;;;;;5112143;28;19989;-49
2022/01/17 04:43:05;;;;;;;;;;;7.00;99.90;;;;;;5077415;28;19920;-53
2022/01/17 04:45:31;;;;;;;;;;;7.00;99.90;;;;;;5076334;28;19973;-52
2022/01/17 04:47:57;;;;;;;;;;;7.10;99.90;;;;;;5092811;28;19916;-54
2022/01/17 04:50:23;;;;;;;;;;;7.10;99.90;;;;;;5077637;28;20230;-52
2022/01/17 04:52:50;;;;;;;;;;;7.10;99.90;;;;;;5076169;28;20343;-53
2022/01/17 04:55:16;;;;;;;;;;;7.10;99.90;;;;;;5075208;28;19908;-51
2022/01/17 04:57:43;;;;;;;;;;;7.10;99.90;;;;;;5074318;28;19951;-54
2022/01/17 05:00:10;;;;;;;;;;;7.10;99.90;;;;;;5077743;28;20001;-54
2022/01/17 05:02:35;;;;;;;;;;;7.10;99.90;;;;;;5074421;28;19908;-50
2022/01/17 05:05:02;;;;;;;;;;;7.10;99.90;;;;;;5075752;28;19908;-54
2022/01/17 05:07:28;;;;;;;;;;;7.10;99.90;;;;;;5094415;28;19954;-53
2022/01/17 05:09:54;;;;;;;;;;;7.10;99.90;;;;;;5077337;28;19920;-50
2022/01/17 05:12:19;;;;;;;;;;;7.10;99.90;;;;;;5093299;28;19916;-49
2022/01/17 05:14:48;;;;;;;;;;;7.10;99.90;;;;;;5092984;28;20014;-51
2022/01/17 05:19:57;;;;;;;;;;;7.10;99.90;;;;;;5092320;28;19973;-56
2022/01/17 05:22:24;;;;;;;;;;;7.20;99.90;;;;;;5074694;28;19908;-53
2022/01/17 05:24:49;;;;;;;;;;;7.20;99.90;;;;;;5074710;28;19916;-53
2022/01/17 05:27:15;;;;;;;;;;;7.20;99.90;;;;;;5075287;28;19912;-54
2022/01/17 05:29:41;;;;;;;;;;;7.20;99.90;;;;;;5075501;28;19920;-52
2022/01/17 05:32:06;;;;;;;;;;;7.20;99.90;;;;;;5074969;28;19915;-54
2022/01/17 05:34:40;;;;;;;;;;;7.30;99.90;;;;;;5075133;28;19908;-51
2022/01/17 05:37:06;;;;;;;;;;;7.30;99.90;;;;;;5073989;28;20041;-54
2022/01/17 05:39:32;;;;;;;;;;;7.30;99.90;;;;;;5093540;28;19914;-53
2022/01/17 05:41:57;;;;;;;;;;;7.30;99.90;;;;;;5075701;28;19908;-52
2022/01/17 05:44:23;;;;;;;;;;;7.30;99.90;;;;;;5074281;28;20007;-49
2022/01/17 05:46:48;;;;;;;;;;;7.30;99.90;;;;;;5074227;28;19989;-52
2022/01/17 05:49:14;;;;;;;;;;;7.30;99.90;;;;;;5074848;28;19909;-50
2022/01/17 05:51:39;;;;;;;;;;;7.30;99.90;;;;;;5106817;28;20063;-53
2022/01/17 05:54:05;;;;;;;;;;;7.30;99.90;;;;;;5072335;28;19908;-53
2022/01/17 05:56:30;;;;;;;;;;;7.30;99.90;;;;;;5072931;28;19944;-49
2022/01/17 05:58:56;;;;;;;;;;;7.30;99.90;;;;;;5090434;28;19917;-55
2022/01/17 06:01:21;;;;;;;;;;;7.30;99.90;;;;;;5076540;28;20342;-52
2022/01/17 06:03:46;;;;;;;;;;;7.30;99.90;;;;;;5091685;28;19915;-52
2022/01/17 06:06:12;;;;;;;;;;;7.30;99.90;;;;;;5092420;28;20228;-53
2022/01/17 06:08:38;;;;;;;;;;;7.40;99.90;;;;;;5093897;28;19912;-50
2022/01/17 06:11:03;;;;;;;;;;;7.30;99.90;;;;;;5077383;28;20073;-55
2022/01/17 06:13:29;;;;;;;;;;;7.30;99.90;;;;;;5095380;28;19943;-51
2022/01/17 06:15:54;;;;;;;;;;;7.30;99.90;;;;;;5093862;28;19938;-52
2022/01/17 06:18:20;;;;;;;;;;;7.30;99.90;;;;;;5094642;28;19947;-55
2022/01/17 06:20:45;;;;;;;;;;;7.40;99.90;;;;;;5077397;28;19959;-49
2022/01/17 06:23:11;;;;;;;;;;;7.40;99.90;;;;;;5077035;28;19915;-52
2022/01/17 06:25:36;;;;;;;;;;;7.40;99.90;;;;;;5078305;28;19915;-53
2022/01/17 06:28:02;;;;;;;;;;;7.50;99.90;;;;;;5094214;28;20253;-55
2022/01/17 06:30:28;;;;;;;;;;;7.50;99.90;;;;;;5076957;28;20109;-52
2022/01/17 06:32:53;;;;;;;;;;;7.50;99.90;;;;;;5075189;28;20271;-56
2022/01/17 06:35:19;;;;;;;;;;;7.50;99.90;;;;;;5075466;28;19935;-50
2022/01/17 06:37:45;;;;;;;;;;;7.50;99.90;;;;;;5095277;28;19969;-52
2022/01/17 06:40:10;;;;;;;;;;;7.50;99.90;;;;;;5094604;28;19976;-53
2022/01/17 06:42:36;;;;;;;;;;;7.40;99.90;;;;;;5076251;28;20035;-52
2022/01/17 06:45:04;;;;;;;;;;;7.40;99.90;;;;;;5074921;28;19912;-55
2022/01/17 06:47:30;;;;;;;;;;;7.40;99.90;;;;;;5074057;28;19908;-51
2022/01/17 06:49:55;;;;;;;;;;;7.50;99.90;;;;;;5073676;28;19912;-54
2022/01/17 06:52:21;;;;;;;;;;;7.40;99.90;;;;;;5074138;28;19935;-51
2022/01/17 06:54:46;;;;;;;;;;;7.50;99.90;;;;;;5073984;28;19908;-53
2022/01/17 06:57:12;;;;;;;;;;;7.40;99.90;;;;;;5072602;28;19973;-53
2022/01/17 06:59:37;;;;;;;;;;;7.40;99.90;;;;;;5106096;28;20075;-55
2022/01/17 07:02:03;;;;;;;;;;;7.40;99.90;;;;;;5074073;28;19908;-54
2022/01/17 07:04:28;;;;;;;;;;;7.40;99.90;;;;;;5074952;28;19908;-56
2022/01/17 07:06:54;;;;;;;;;;;7.40;99.90;;;;;;5073523;28;19915;-53
2022/01/17 07:09:19;;;;;;;;;;;7.40;99.90;;;;;;5072659;28;20273;-53
2022/01/17 07:11:45;;;;;;;;;;;7.40;99.90;;;;;;5072510;28;20200;-52
2022/01/17 07:14:11;;;;;;;;;;;7.40;99.90;;;;;;5108316;28;19916;-52
2022/01/17 07:16:37;;;;;;;;;;;7.40;99.90;;;;;;5073564;28;20181;-49
2022/01/17 07:19:03;;;;;;;;;;;7.40;99.90;;;;;;5105697;28;19909;-51
2022/01/17 07:21:28;;;;;;;;;;;7.40;99.90;;;;;;5071431;28;19908;-50
2022/01/17 07:23:54;;;;;;;;;;;7.40;99.90;;;;;;5071375;28;19907;-54
2022/01/17 07:26:20;;;;;;;;;;;7.40;99.90;;;;;;5068305;28;19908;-55
2022/01/17 07:28:45;;;;;;;;;;;7.40;99.90;;;;;;5067476;28;19943;-55
2022/01/17 07:31:11;;;;;;;;;;;7.40;99.90;;;;;;5069963;28;19971;-56
2022/01/17 07:33:37;;;;;;;;;;;7.40;99.90;;;;;;5070332;28;20049;-55
2022/01/17 07:36:07;;;;;;;;;;;7.40;99.90;;;;;;5071737;28;19912;-51
2022/01/17 07:38:33;;;;;;;;;;;7.40;99.90;;;;;;5071085;28;19916;-54
2022/01/17 07:40:59;;;;;;;;;;;7.40;99.90;;;;;;5070664;28;19915;-56
2022/01/17 07:43:24;;;;;;;;;;;7.50;99.90;;;;;;5069602;28;19912;-54
2022/01/17 07:46:05;;;;;;;;;;;7.50;99.90;;;;;;5085595;28;19913;-51
2022/01/17 07:48:56;;;;;;;;;;;7.50;99.90;;;;;;5083363;28;20296;-53
2022/01/17 07:51:22;;;;;;;;;;;7.50;99.90;;;;;;5084590;28;20057;-55
2022/01/17 07:53:49;;;;;;;;;;;7.60;99.90;;;;;;5065933;28;19912;-52
2022/01/17 07:56:14;;;;;;;;;;;7.50;99.90;;;;;;5067283;28;19908;-52
2022/01/17 07:58:41;;;;;;;;;;;7.50;99.90;;;;;;5067474;28;19922;-52
2022/01/17 08:01:07;;;;;;;;;;;7.50;99.90;;;;;;5086194;28;20028;-54
2022/01/17 08:03:33;;;;;;;;;;;7.50;99.90;;;;;;5069601;28;19909;-52
2022/01/17 08:05:59;;;;;;;;;;;7.50;99.90;;;;;;5068695;28;20041;-54
2022/01/17 08:08:24;;;;;;;;;;;7.50;99.90;;;;;;5069395;28;19977;-52
2022/01/17 08:10:50;;;;;;;;;;;7.50;99.90;;;;;;5088651;28;19916;-54
2022/01/17 08:13:15;;;;;;;;;;;7.50;99.90;;;;;;5072882;28;19912;-51
2022/01/17 08:15:40;;;;;;;;;;;7.50;99.90;;;;;;5089672;28;19912;-49
2022/01/17 08:18:06;;;;;;;;;;;7.50;99.90;;;;;;5088352;28;20028;-50
2022/01/17 08:20:32;;;;;;;;;;;7.50;99.90;;;;;;5104610;28;19981;-53
2022/01/17 08:22:57;;;;;;;;;;;7.50;99.90;;;;;;5071834;28;19969;-49
2022/01/17 08:25:23;;;;;;;;;;;7.50;99.90;;;;;;5071956;28;19915;-54
2022/01/17 08:27:49;;;;;;;;;;;7.40;99.90;;;;;;5072263;28;20250;-54
2022/01/17 08:30:15;;;;;;;;;;;7.40;99.90;;;;;;5107118;28;19922;-53
2022/01/17 08:32:41;;;;;;;;;;;7.50;99.90;;;;;;5072771;28;19924;-51
2022/01/17 08:35:06;;;;;;;;;;;7.50;99.90;;;;;;5105024;28;19912;-54
2022/01/17 08:37:34;;;;;;;;;;;7.50;99.90;;;;;;5088737;28;19912;-52
2022/01/17 08:40:00;;;;;;;;;;;7.50;99.90;;;;;;5079248;28;20225;-51
2022/01/17 08:42:26;;;;;;;;;;;7.50;99.90;;;;;;5094824;28;19912;-54
2022/01/17 08:44:52;;;;;;;;;;;7.50;99.90;;;;;;5074815;28;20172;-53
2022/01/17 08:47:18;;;;;;;;;;;7.50;99.90;;;;;;5074015;28;19916;-55
2022/01/17 08:49:43;;;;;;;;;;;7.60;99.90;;;;;;5108061;28;20335;-51
2022/01/17 08:52:09;;;;;;;;;;;7.60;99.90;;;;;;5088936;28;20075;-54
2022/01/17 08:54:35;;;;;;;;;;;7.60;99.90;;;;;;5071462;28;19973;-51
2022/01/17 08:57:01;;;;;;;;;;;7.60;99.90;;;;;;5070972;28;20203;-50
2022/01/17 08:59:28;;;;;;;;;;;7.60;99.90;;;;;;5104532;28;19954;-51
2022/01/17 09:01:54;;;;;;;;;;;7.60;99.90;;;;;;5086409;28;19934;-53
2022/01/17 09:04:19;;;;;;;;;;;7.60;99.90;;;;;;5102651;28;19916;-53
2022/01/17 09:06:47;;;;;;;;;;;7.60;99.90;;;;;;5087974;28;19908;-56
2022/01/17 09:09:13;;;;;;;;;;;7.60;99.90;;;;;;5075256;28;19923;-52
2022/01/17 09:11:40;;;;;;;;;;;7.60;99.90;;;;;;5075432;28;20308;-55
2022/01/17 09:14:07;;;;;;;;;;;7.60;99.90;;;;;;5094095;28;19912;-55
2022/01/17 09:16:33;;;;;;;;;;;7.60;99.90;;;;;;5075295;28;19958;-54
2022/01/17 09:19:01;;;;;;;;;;;7.60;99.90;;;;;;5074381;28;19908;-56
2022/01/17 09:21:27;;;;;;;;;;;7.60;99.90;;;;;;5091488;28;19908;-52
2022/01/17 09:23:57;;;;;;;;;;;7.70;99.90;;;;;;5072978;28;19955;-52
2022/01/17 09:26:25;;;;;;;;;;;7.70;99.90;;;;;;5091507;28;19943;-53
2022/01/17 09:28:55;;;;;;;;;;;7.70;99.90;;;;;;5093255;28;19908;-54
2022/01/17 09:31:21;;;;;;;;;;;7.70;99.90;;;;;;5110387;28;19916;-54
2022/01/17 09:33:47;;;;;;;;;;;7.70;99.90;;;;;;5108360;28;19954;-53
2022/01/17 09:36:14;;;;;;;;;;;7.70;99.90;;;;;;5078456;28;19948;-54
2022/01/17 09:38:40;;;;;;;;;;;7.70;99.90;;;;;;5079261;28;19908;-54
2022/01/17 09:41:07;;;;;;;;;;;8.10;99.90;;;;;;5080462;28;19981;-55
2022/01/17 09:43:36;;;;;;;;;;;8.10;99.90;;;;;;5096132;28;19964;-54
2022/01/17 09:46:03;;;;;;;;;;;7.90;99.90;;;;;;5111983;28;19955;-55
2022/01/17 09:48:39;;;;;;;;;;;7.80;99.90;;;;;;5095630;28;20489;-53
2022/01/17 09:51:16;;;;;;;;;;;7.70;99.90;;;;;;5097184;28;19916;-53
2022/01/17 09:53:43;;;;;;;;;;;7.60;99.90;;;;;;5094267;28;20277;-55
2022/01/17 09:56:08;;;;;;;;;;;7.60;99.90;;;;;;5097043;28;19909;-54
2022/01/17 09:58:39;;;;;;;;;;;7.60;99.90;;;;;;5080404;28;19935;-51
2022/01/17 10:01:06;;;;;;;;;;;7.60;99.90;;;;;;5079521;28;20330;-53
2022/01/17 10:03:32;;;;;;;;;;;7.60;99.90;;;;;;5079863;28;19912;-55
2022/01/17 10:05:59;;;;;;;;;;;7.60;99.90;;;;;;5113261;28;19964;-55
2022/01/17 10:08:24;;;;;;;;;;;7.70;99.90;;;;;;5078469;28;19912;-54
2022/01/17 10:11:05;;;;;;;;;;;7.70;99.90;;;;;;5079172;28;19920;-54
2022/01/17 10:13:41;;;;;;;;;;;7.70;99.90;;;;;;5096891;28;19912;-50
2022/01/17 10:16:15;;;;;;;;;;;7.80;99.90;;;;;;5097370;28;20411;-52
2022/01/17 10:19:01;;;;;;;;;;;7.90;99.90;;;;;;5079786;28;20329;-49
2022/01/17 10:21:42;;;;;;;;;;;8.00;99.90;;;;;;5097061;28;19908;-50
2022/01/17 10:27:09;;;;;;;;;;;8.20;99.90;;;;;;5095748;28;20505;-55
2022/01/17 10:35:31;;;;;;;;;;;8.20;99.90;;;;;;5094016;28;19915;-53
2022/01/17 10:38:10;;;;;;;;;;;8.20;99.90;;;;;;5093616;28;19930;-53
2022/01/17 10:40:40;;;;;;;;;;;8.10;99.90;;;;;;5093714;28;19958;-51
2022/01/17 10:43:18;;;;;;;;;;;8.00;99.90;;;;;;5075830;28;19920;-55
2022/01/17 10:45:44;;;;;;;;;;;8.00;99.90;;;;;;5109035;28;19908;-52
2022/01/17 10:48:11;;;;;;;;;;;7.90;99.90;;;;;;5077636;28;19908;-56
2022/01/17 10:50:39;;;;;;;;;;;7.90;99.90;;;;;;5077426;28;19912;-52
2022/01/17 10:53:06;;;;;;;;;;;7.80;99.90;;;;;;5077675;28;19935;-53
2022/01/17 10:55:37;;;;;;;;;;;7.80;99.90;;;;;;5096304;28;19912;-53
2022/01/17 10:58:09;;;;;;;;;;;7.80;99.90;;;;;;5078814;28;19908;-56
2022/01/17 11:00:36;;;;;;;;;;;7.70;99.90;;;;;;5059176;28;20287;-52
2022/01/17 11:03:05;;;;;;;;;;;7.80;99.90;;;;;;5076320;28;20003;-56
2022/01/17 11:05:32;;;;;;;;;;;7.70;99.90;;;;;;5057763;28;20222;-54
2022/01/17 11:08:01;;;;;;;;;;;7.70;99.90;;;;;;5057220;28;19916;-55
2022/01/17 11:10:39;;;;;;;;;;;7.70;99.90;;;;;;5075194;28;19928;-56
2022/01/17 11:13:07;;;;;;;;;;;7.60;99.90;;;;;;5075616;28;19913;-56
2022/01/17 11:15:35;;;;;;;;;;;7.60;99.90;;;;;;5077020;28;20297;-54
2022/01/17 11:18:09;;;;;;;;;;;7.60;99.90;;;;;;5077494;28;19920;-54
2022/01/17 11:20:38;;;;;;;;;;;7.50;99.90;;;;;;5076474;28;19987;-51
2022/01/17 11:23:04;;;;;;;;;;;7.50;99.90;;;;;;5077283;28;20499;-54
2022/01/17 11:25:35;;;;;;;;;;;7.40;99.90;;;;;;5076213;28;19998;-56
2022/01/17 11:28:04;;;;;;;;;;;7.30;99.90;;;;;;5059450;28;20247;-53
2022/01/17 11:30:33;;;;;;;;;;;7.20;99.90;;;;;;5058077;28;19922;-55
2022/01/17 11:33:03;;;;;;;;;;;7.20;99.90;;;;;;5077088;28;19913;-49
2022/01/17 11:35:31;;;;;;;;;;;7.20;99.90;;;;;;5075825;28;19916;-54
2022/01/17 11:37:59;;;;;;;;;;;7.30;99.90;;;;;;5057327;28;19917;-55
2022/01/17 11:40:32;;;;;;;;;;;7.40;99.90;;;;;;5073034;28;19965;-50
2022/01/17 11:42:59;;;;;;;;;;;7.40;99.90;;;;;;5073264;28;19908;-53
2022/01/17 11:45:28;;;;;;;;;;;7.60;99.90;;;;;;5056074;28;19909;-52
2022/01/17 11:47:56;;;;;;;;;;;7.80;99.90;;;;;;5072761;28;20504;-56
2022/01/17 11:50:33;;;;;;;;;;;7.80;99.90;;;;;;5089920;28;19916;-50
2022/01/17 11:53:20;;;;;;;;;;;7.80;99.90;;;;;;5054710;28;19923;-54
2022/01/17 11:55:50;;;;;;;;;;;7.70;99.90;;;;;;5045148;28;19912;-50
2022/01/17 11:58:15;;;;;;;;;;;7.70;99.90;;;;;;5056209;28;19908;-49
2022/01/17 12:00:43;;;;;;;;;;;7.60;99.90;;;;;;5093892;28;20223;-55
2022/01/17 12:03:25;;;;;;;;;;;8.00;99.90;;;;;;5075206;28;19916;-51
2022/01/17 12:05:50;;;;;;;;;;;8.20;99.90;;;;;;5072776;28;19908;-53
2022/01/17 12:08:19;;;;;;;;;;;8.30;99.90;;;;;;5105556;28;20339;-55
2022/01/17 12:10:47;;;;;;;;;;;8.00;99.90;;;;;;5091113;28;19927;-54
2022/01/17 12:13:22;;;;;;;;;;;7.90;99.90;;;;;;5090378;28;19951;-57
2022/01/17 12:16:06;;;;;;;;;;;7.90;99.90;;;;;;5107397;28;19908;-52
2022/01/17 12:18:34;;;;;;;;;;;7.80;99.90;;;;;;5073542;28;19916;-56
2022/01/17 12:21:18;;;;;;;;;;;7.80;99.90;;;;;;5093188;28;19955;-50
2022/01/17 12:23:45;;;;;;;;;;;7.80;99.90;;;;;;5074958;28;19908;-56
2022/01/17 12:26:28;;;;;;;;;;;7.80;99.90;;;;;;5076761;28;19908;-54
2022/01/17 12:28:56;;;;;;;;;;;7.70;99.90;;;;;;5091272;28;20169;-57
2022/01/17 12:31:38;;;;;;;;;;;7.60;99.90;;;;;;5074572;28;20181;-55
2022/01/17 12:34:13;;;;;;;;;;;7.50;99.90;;;;;;5075028;28;20005;-56
2022/01/17 12:36:42;;;;;;;;;;;7.60;99.90;;;;;;5075243;28;19908;-55
2022/01/17 12:39:18;;;;;;;;;;;7.60;99.90;;;;;;5091898;28;19912;-54
2022/01/17 12:41:45;;;;;;;;;;;7.50;99.90;;;;;;5074929;28;19924;-56
2022/01/17 12:44:24;;;;;;;;;;;7.60;99.90;;;;;;5074916;28;19908;-55
2022/01/17 12:46:52;;;;;;;;;;;7.50;99.90;;;;;;5092099;28;19977;-54
2022/01/17 12:49:19;;;;;;;;;;;7.40;99.90;;;;;;5090601;28;19908;-55
2022/01/17 12:51:47;;;;;;;;;;;7.40;99.90;;;;;;5072877;28;19944;-56
2022/01/17 12:54:19;;;;;;;;;;;7.40;99.90;;;;;;5091058;28;19908;-56
2022/01/17 12:56:48;;;;;;;;;;;7.40;99.90;;;;;;5075117;28;19908;-53
2022/01/17 12:59:18;;;;;;;;;;;7.40;99.90;;;;;;5073233;28;20006;-53
2022/01/17 13:01:48;;;;;;;;;;;7.40;99.90;;;;;;5072268;28;19912;-52
2022/01/17 13:04:16;;;;;;;;;;;7.30;99.90;;;;;;5071054;28;19919;-56
2022/01/17 13:06:44;;;;;;;;;;;7.30;99.90;;;;;;5073385;28;20019;-54
2022/01/17 13:09:12;;;;;;;;;;;7.30;99.90;;;;;;5093507;28;20384;-51
2022/01/17 13:11:43;;;;;;;;;;;7.30;99.90;;;;;;5097854;28;19916;-53
2022/01/17 13:14:10;;;;;;;;;;;7.30;99.90;;;;;;5080278;28;19998;-54
2022/01/17 13:16:36;;;;;;;;;;;7.30;99.90;;;;;;5080193;28;19920;-55
2022/01/17 13:19:03;;;;;;;;;;;7.30;99.90;;;;;;5095218;28;19919;-56
2022/01/17 13:21:30;;;;;;;;;;;7.40;99.90;;;;;;5078965;28;19908;-55
2022/01/17 13:24:11;;;;;;;;;;;7.40;99.90;;;;;;5078532;28;19916;-53
2022/01/17 13:26:41;;;;;;;;;;;7.40;99.90;;;;;;5096714;28;19987;-49
2022/01/17 13:29:08;;;;;;;;;;;7.40;99.90;;;;;;5077921;28;19918;-51
2022/01/17 13:31:36;;;;;;;;;;;7.30;99.90;;;;;;5077041;28;19935;-54
2022/01/17 13:34:19;;;;;;;;;;;7.30;99.90;;;;;;5093155;28;19908;-54
2022/01/17 13:36:46;;;;;;;;;;;7.30;99.90;;;;;;5093171;28;19908;-54
2022/01/17 13:39:16;;;;;;;;;;;7.30;99.90;;;;;;5092026;28;19923;-54
2022/01/17 13:41:44;;;;;;;;;;;7.30;99.90;;;;;;5076005;28;19919;-53
2022/01/17 13:44:10;;;;;;;;;;;7.30;99.90;;;;;;5077473;28;19917;-53
2022/01/17 13:46:43;;;;;;;;;;;7.20;99.90;;;;;;5078115;28;19908;-52
2022/01/17 13:49:09;;;;;;;;;;;7.20;99.90;;;;;;5096019;28;20197;-49
2022/01/17 13:51:35;;;;;;;;;;;7.20;99.90;;;;;;5079381;28;20326;-54
2022/01/17 13:54:01;;;;;;;;;;;7.20;99.90;;;;;;5078146;28;19908;-56
2022/01/17 13:56:35;;;;;;;;;;;7.20;99.90;;;;;;5078919;28;19976;-55
2022/01/17 13:59:03;;;;;;;;;;;7.20;99.90;;;;;;5078701;28;19916;-55
2022/01/17 14:01:36;;;;;;;;;;;7.20;99.90;;;;;;5077642;28;19908;-55
2022/01/17 14:04:12;;;;;;;;;;;7.20;99.90;;;;;;5079133;28;19991;-55
2022/01/17 14:06:39;;;;;;;;;;;7.20;99.90;;;;;;5074239;28;19926;-56
2022/01/17 14:09:06;;;;;;;;;;;7.20;99.90;;;;;;5073883;28;19947;-56
2022/01/17 14:11:35;;;;;;;;;;;7.30;99.90;;;;;;5073770;28;19916;-53
2022/01/17 14:14:00;;;;;;;;;;;7.20;99.90;;;;;;5091838;28;20379;-54
2022/01/17 14:16:32;;;;;;;;;;;7.20;99.90;;;;;;5091752;28;19920;-54
2022/01/17 14:19:08;;;;;;;;;;;7.10;99.90;;;;;;5073980;28;19908;-55
2022/01/17 14:21:38;;;;;;;;;;;7.10;99.90;;;;;;5089428;28;20021;-55
2022/01/17 14:24:22;;;;;;;;;;;7.10;99.90;;;;;;5087728;28;20166;-57
2022/01/17 14:26:48;;;;;;;;;;;7.10;99.90;;;;;;5067778;28;19916;-56
2022/01/17 14:29:14;;;;;;;;;;;7.10;99.90;;;;;;5103242;28;20197;-54
2022/01/17 14:31:40;;;;;;;;;;;7.10;99.90;;;;;;5067917;28;20030;-55
2022/01/17 14:34:16;;;;;;;;;;;7.10;99.90;;;;;;5066727;28;20333;-53
2022/01/17 14:36:43;;;;;;;;;;;7.10;99.90;;;;;;5085041;28;19916;-55
2022/01/17 14:39:09;;;;;;;;;;;7.10;99.90;;;;;;5085462;28;20014;-56
2022/01/17 14:41:37;;;;;;;;;;;7.10;99.90;;;;;;5071452;28;19915;-50
2022/01/17 14:44:06;;;;;;;;;;;7.00;99.90;;;;;;5069796;28;20060;-55
2022/01/17 14:46:32;;;;;;;;;;;7.00;99.90;;;;;;5102284;28;20332;-52
2022/01/17 14:48:58;;;;;;;;;;;7.00;99.90;;;;;;5069704;28;20181;-55
2022/01/17 14:51:26;;;;;;;;;;;6.90;99.90;;;;;;5072957;28;19920;-53
2022/01/17 14:53:56;;;;;;;;;;;6.90;99.90;;;;;;5108174;28;19912;-56
2022/01/17 15:02:38;;;;;;;;;;;6.80;99.90;;;;;;5081185;28;19909;-54
2022/01/17 15:04:53;;;;;;;;;;;6.70;99.90;;;;;;5084976;28;19912;-54